Terminal Aerodrome Forecast
Issued by NWS Caribou, ME

Home | Current Version | Previous Version | Text Only | Print | Product List | Glossary On
Versions: 1 2 3 4 5 6 7 8 9 10 11 12 13 14 15 16 17 18 19
295
FTUS41 KCAR 060243 AAB
TAFBGR
TAF AMD
KBGR 060243Z 0603/0624 35006KT 4SM -SN BR SCT015 OVC025
      TEMPO 0603/0604 2SM -SN BR OVC015
     FM060400 35006KT P6SM OVC015
     FM061200 35006KT P6SM BKN025
     FM061500 35006KT P6SM BKN040
     FM061800 35006KT P6SM SCT040=

USA.gov is the U.S. government's official web portal to all federal, state and local government web resources and services.